createdAt,value
2023-03-28T00:01:44.512Z,1.10
2023-03-28T00:04:49.921Z,1.90
2023-03-28T00:07:55.022Z,1.30
2023-03-28T00:11:09.881Z,1.08
2023-03-28T00:14:15.444Z,1.10
2023-03-28T00:17:19.792Z,1.15
2023-03-28T00:20:24.207Z,1.00
2023-03-28T00:23:29.833Z,1.40
2023-03-28T00:26:36.005Z,1.00
2023-03-28T00:29:41.721Z,1.92
2023-03-28T00:32:46.385Z,1.33
2023-03-28T00:35:51.476Z,1.17
2023-03-28T00:38:57.951Z,1.52
2023-03-28T00:42:04.095Z,1.15
2023-03-28T00:45:12.372Z,1.52
2023-03-28T00:48:16.971Z,1.38
2023-03-28T00:51:32.324Z,1.30
2023-03-28T00:54:40.309Z,1.20
2023-03-28T00:57:47.703Z,1.23
2023-03-28T01:00:54.977Z,1.20
2023-03-28T01:04:03.288Z,1.30
2023-03-28T01:07:08.737Z,0.98
2023-03-28T01:10:15.413Z,1.40
2023-03-28T01:13:31.567Z,1.10
2023-03-28T01:16:41.551Z,1.52
2023-03-28T01:20:18.518Z,1.10
2023-03-28T01:24:19.438Z,1.30
2023-03-28T01:27:53.378Z,1.40
2023-03-28T01:31:36.070Z,1.20
2023-03-28T01:35:49.112Z,1.20
2023-03-28T01:39:25.527Z,1.20
2023-03-28T01:43:00.246Z,1.00
2023-03-28T01:46:30.355Z,1.50
2023-03-28T01:49:55.478Z,1.05
2023-03-28T01:53:44.248Z,1.10
2023-03-28T01:57:14.163Z,1.35
2023-03-28T02:00:31.116Z,1.02
2023-03-28T02:03:54.158Z,1.30
2023-03-28T02:07:19.620Z,1.25
2023-03-28T02:10:46.769Z,1.30
2023-03-28T02:14:14.609Z,1.20
2023-03-28T02:17:47.420Z,1.20
2023-03-28T02:21:18.958Z,1.05
2023-03-28T02:24:42.918Z,1.13
2023-03-28T02:31:22.275Z,1.15
2023-03-28T02:34:27.324Z,1.30
2023-03-28T02:37:57.929Z,1.27
2023-03-28T02:41:23.739Z,1.20
2023-03-28T02:44:55.704Z,1.20
2023-03-28T02:48:25.328Z,1.25
2023-03-28T02:52:04.329Z,1.33
2023-03-28T02:55:34.605Z,1.35
2023-03-28T02:59:26.112Z,1.60
2023-03-28T03:02:33.530Z,1.40
2023-03-28T03:05:38.569Z,1.23
2023-03-28T03:08:44.220Z,1.38
2023-03-28T03:11:49.330Z,1.23
2023-03-28T03:14:53.468Z,1.33
2023-03-28T03:18:30.226Z,1.48
2023-03-28T03:21:37.067Z,1.30
2023-03-28T03:24:42.266Z,1.38
2023-03-28T03:27:46.929Z,1.70
2023-03-28T03:30:52.900Z,1.20
2023-03-28T03:34:08.710Z,1.15
2023-03-28T03:37:19.041Z,1.20
2023-03-28T03:40:27.937Z,1.33
2023-03-28T03:43:39.303Z,1.58
2023-03-28T03:46:46.423Z,1.55
2023-03-28T03:49:51.106Z,1.45
2023-03-28T03:52:55.432Z,1.23
2023-03-28T03:56:06.989Z,1.15
2023-03-28T03:59:32.032Z,1.60
2023-03-28T04:02:36.876Z,1.35
2023-03-28T04:05:42.695Z,1.40
2023-03-28T04:08:48.642Z,1.38
2023-03-28T04:12:06.006Z,1.50
2023-03-28T04:15:20.833Z,1.60
2023-03-28T04:18:37.036Z,1.48
2023-03-28T04:21:42.851Z,1.20
2023-03-28T04:24:49.979Z,1.90
2023-03-28T04:28:03.524Z,1.58
2023-03-28T04:31:13.039Z,1.40
2023-03-28T04:34:45.861Z,1.90
2023-03-28T04:37:57.836Z,1.88
2023-03-28T04:41:04.915Z,1.95
2023-03-28T04:44:41.923Z,1.77
2023-03-28T04:47:49.133Z,1.88
2023-03-28T04:50:57.112Z,2.22
2023-03-28T04:54:02.123Z,2.42
2023-03-28T04:57:25.172Z,2.05
2023-03-28T05:00:36.978Z,1.85
2023-03-28T05:03:41.605Z,1.70
2023-03-28T05:06:48.732Z,1.60
2023-03-28T05:09:53.356Z,1.45
2023-03-28T05:12:58.771Z,1.80
2023-03-28T05:16:05.412Z,2.05
2023-03-28T05:19:31.237Z,1.88
2023-03-28T05:22:46.109Z,1.67
2023-03-28T05:25:54.975Z,2.10
2023-03-28T05:29:00.458Z,2.20
2023-03-28T05:32:06.123Z,1.75
2023-03-28T05:35:15.413Z,1.80
2023-03-28T05:38:21.835Z,2.00
2023-03-28T05:41:30.384Z,1.95
2023-03-28T05:44:34.638Z,2.00
2023-03-28T05:48:06.170Z,1.65
2023-03-28T05:51:13.968Z,1.80
2023-03-28T05:54:18.481Z,1.80
2023-03-28T05:57:23.522Z,1.90
2023-03-28T06:00:28.272Z,2.28
2023-03-28T06:03:32.919Z,2.30
2023-03-28T06:06:45.421Z,1.98
2023-03-28T06:09:50.402Z,1.80
2023-03-28T06:12:55.367Z,2.47
2023-03-28T06:16:01.107Z,1.95
2023-03-28T06:19:17.884Z,2.10
2023-03-28T06:22:28.105Z,1.98
2023-03-28T06:25:36.744Z,2.00
2023-03-28T06:28:41.324Z,2.22
2023-03-28T06:31:55.803Z,2.00
2023-03-28T06:35:01.179Z,1.80
2023-03-28T06:38:05.588Z,1.70
2023-03-28T06:41:10.448Z,1.88
2023-03-28T06:44:14.771Z,1.98
2023-03-28T06:47:38.433Z,1.90
2023-03-28T06:50:52.011Z,1.83
2023-03-28T06:53:58.749Z,2.20
2023-03-28T06:57:07.449Z,2.00
2023-03-28T07:00:15.402Z,1.63
2023-03-28T07:03:40.421Z,2.20
2023-03-28T07:06:45.363Z,1.98
2023-03-28T07:09:51.841Z,2.13
2023-03-28T07:12:56.628Z,2.13
2023-03-28T07:16:05.206Z,2.05
2023-03-28T07:19:10.260Z,2.00
2023-03-28T07:22:18.981Z,1.73
2023-03-28T07:25:24.766Z,1.95
2023-03-28T07:28:29.522Z,2.20
2023-03-28T07:31:34.749Z,2.13
2023-03-28T07:34:39.704Z,1.98
2023-03-28T07:37:47.361Z,2.28
2023-03-28T07:41:08.178Z,2.10
2023-03-28T07:44:14.498Z,1.90
2023-03-28T07:47:19.041Z,2.42
2023-03-28T07:50:24.901Z,1.98
2023-03-28T07:53:30.379Z,1.63
2023-03-28T07:56:35.077Z,1.80
2023-03-28T07:59:57.459Z,1.80
2023-03-28T08:03:02.860Z,1.70
2023-03-28T08:06:20.643Z,1.73
2023-03-28T08:09:30.129Z,1.40
2023-03-28T08:12:47.712Z,1.45
2023-03-28T08:15:56.050Z,1.25
2023-03-28T08:22:17.193Z,1.10
2023-03-28T08:25:30.872Z,1.73
2023-03-28T08:28:37.607Z,1.40
2023-03-28T08:31:42.614Z,1.58
2023-03-28T08:34:50.987Z,1.40
2023-03-28T08:37:59.872Z,1.20
2023-03-28T08:41:16.623Z,1.63
2023-03-28T08:45:00.763Z,1.63
2023-03-28T08:48:17.917Z,1.92
2023-03-28T08:51:29.540Z,1.42
2023-03-28T08:54:41.571Z,1.38
2023-03-28T08:57:46.685Z,1.67
2023-03-28T09:00:52.701Z,2.30
2023-03-28T09:03:57.972Z,1.67
2023-03-28T09:07:32.611Z,1.83
2023-03-28T09:10:48.161Z,1.50
2023-03-28T09:14:34.936Z,1.15
2023-03-28T09:18:14.274Z,1.50
2023-03-28T09:21:33.307Z,1.25
2023-03-28T09:25:16.637Z,1.35
2023-03-28T09:28:54.262Z,0.93
2023-03-28T09:32:05.534Z,1.08
2023-03-28T09:35:22.154Z,0.90
2023-03-28T09:38:40.741Z,1.20
2023-03-28T09:42:23.015Z,1.30
2023-03-28T09:45:36.510Z,0.90
2023-03-28T09:49:03.890Z,1.35
2023-03-28T09:52:18.876Z,0.80
2023-03-28T09:55:28.524Z,1.42
2023-03-28T09:58:58.105Z,1.38
2023-03-28T10:02:33.566Z,1.20
2023-03-28T10:05:45.117Z,1.08
2023-03-28T10:09:20.897Z,1.35
2023-03-28T10:12:39.037Z,1.30
2023-03-28T10:15:51.315Z,1.67
2023-03-28T10:19:23.894Z,1.58
2023-03-28T10:22:39.328Z,2.08
2023-03-28T10:25:49.921Z,1.50
2023-03-28T10:29:02.305Z,1.50
2023-03-28T10:32:13.913Z,1.55
2023-03-28T10:35:29.903Z,1.25
2023-03-28T10:38:55.612Z,1.73
2023-03-28T10:42:26.269Z,1.75
2023-03-28T10:45:45.768Z,2.00
2023-03-28T10:49:07.843Z,1.90
2023-03-28T10:52:41.639Z,2.05
2023-03-28T10:56:22.089Z,1.42
2023-03-28T11:00:07.088Z,1.50
2023-03-28T11:03:27.256Z,1.80
2023-03-28T11:07:04.149Z,1.65
2023-03-28T11:11:11.890Z,1.50
2023-03-28T11:15:06.184Z,1.85
2023-03-28T11:18:42.098Z,2.00
2023-03-28T11:22:06.478Z,1.60
2023-03-28T11:25:31.450Z,1.77
2023-03-28T11:29:40.475Z,1.83
2023-03-28T11:32:57.571Z,1.55
2023-03-28T11:36:10.590Z,1.33
2023-03-28T11:39:39.055Z,1.70
2023-03-28T11:43:05.791Z,2.08
2023-03-28T11:46:28.682Z,1.88
2023-03-28T11:49:41.967Z,2.20
2023-03-28T11:53:16.996Z,1.80
2023-03-28T11:57:12.394Z,1.60
2023-03-28T12:00:52.639Z,2.00
2023-03-28T12:04:16.557Z,1.50
2023-03-28T12:07:50.407Z,2.35
2023-03-28T12:11:10.970Z,2.03
2023-03-28T12:14:47.017Z,1.90
2023-03-28T12:18:36.230Z,1.40
2023-03-28T12:21:57.108Z,1.38
2023-03-28T12:25:31.209Z,2.30
2023-03-28T12:28:53.786Z,2.55
2023-03-28T12:32:29.854Z,1.85
2023-03-28T12:35:40.865Z,1.80
2023-03-28T12:39:38.680Z,1.45
2023-03-28T12:42:56.375Z,2.20
2023-03-28T12:46:04.480Z,1.63
2023-03-28T12:49:37.112Z,2.65
2023-03-28T12:52:46.947Z,1.80
2023-03-28T12:56:03.550Z,1.70
2023-03-28T12:59:38.596Z,1.98
2023-03-28T13:03:13.073Z,1.80
2023-03-28T13:06:53.091Z,2.00
2023-03-28T13:10:27.891Z,1.85
2023-03-28T13:14:28.041Z,1.65
2023-03-28T13:17:35.028Z,2.00
2023-03-28T13:20:51.944Z,1.90
2023-03-28T13:23:56.421Z,2.05
2023-03-28T13:27:17.245Z,2.83
2023-03-28T13:30:31.392Z,2.33
2023-03-28T13:33:38.760Z,2.58
2023-03-28T13:36:51.007Z,2.72
2023-03-28T13:39:59.776Z,1.75
2023-03-28T13:43:04.484Z,2.17
2023-03-28T13:46:13.113Z,2.22
2023-03-28T13:49:42.079Z,2.63
2023-03-28T13:52:46.836Z,2.25
2023-03-28T13:56:26.386Z,2.22
2023-03-28T13:59:58.661Z,1.73
2023-03-28T14:03:11.455Z,1.73
2023-03-28T14:06:26.663Z,1.83
2023-03-28T14:09:34.999Z,2.72
2023-03-28T14:12:39.727Z,2.78
2023-03-28T14:15:45.665Z,2.70
2023-03-28T14:18:51.616Z,2.22
2023-03-28T14:21:56.521Z,2.10
2023-03-28T14:25:14.375Z,2.15
2023-03-28T14:28:19.050Z,2.03
2023-03-28T14:31:37.229Z,2.22
2023-03-28T14:34:45.067Z,2.05
2023-03-28T14:37:51.894Z,2.00
2023-03-28T14:41:27.602Z,2.10
2023-03-28T14:44:39.407Z,1.77
2023-03-28T14:47:44.550Z,1.92
2023-03-28T14:50:52.949Z,2.20
2023-03-28T14:53:58.213Z,1.90
2023-03-28T14:57:04.441Z,1.80
2023-03-28T15:00:16.968Z,2.20
2023-03-28T15:03:43.741Z,2.40
2023-03-28T15:06:56.640Z,2.38
2023-03-28T15:10:19.148Z,2.03
2023-03-28T15:13:32.465Z,1.67
2023-03-28T15:16:40.816Z,1.48
2023-03-28T15:19:49.940Z,1.88
2023-03-28T15:23:00.221Z,2.55
2023-03-28T15:26:13.394Z,2.10
2023-03-28T15:29:21.840Z,1.85
2023-03-28T15:32:28.097Z,1.98
2023-03-28T15:35:39.622Z,2.28
2023-03-28T15:38:48.613Z,2.03
2023-03-28T15:42:14.285Z,2.03
2023-03-28T15:45:24.156Z,2.22
2023-03-28T15:48:34.828Z,2.60
2023-03-28T15:51:53.477Z,2.22
2023-03-28T15:55:01.091Z,2.13
2023-03-28T15:58:06.708Z,2.60
2023-03-28T16:01:30.782Z,2.28
2023-03-28T16:04:35.762Z,2.92
2023-03-28T16:07:49.963Z,2.30
2023-03-28T16:10:54.357Z,2.05
2023-03-28T16:14:21.235Z,1.80
2023-03-28T16:17:47.176Z,1.90
2023-03-28T16:20:58.268Z,1.85
2023-03-28T16:24:02.800Z,1.58
2023-03-28T16:27:07.909Z,1.73
2023-03-28T16:30:30.754Z,1.70
2023-03-28T16:33:35.222Z,2.20
2023-03-28T16:36:39.686Z,1.70
2023-03-28T16:39:44.214Z,1.88
2023-03-28T16:42:48.838Z,2.30
2023-03-28T16:45:53.532Z,1.90
2023-03-28T16:48:57.953Z,1.85
2023-03-28T16:52:04.461Z,2.30
2023-03-28T16:55:12.982Z,2.20
2023-03-28T16:58:17.703Z,1.50
2023-03-28T17:01:24.692Z,1.60
2023-03-28T17:04:30.049Z,2.25
2023-03-28T17:07:34.785Z,2.25
2023-03-28T17:10:43.337Z,2.20
2023-03-28T17:13:52.865Z,2.35
2023-03-28T17:16:57.548Z,2.05
2023-03-28T17:20:02.357Z,2.55
2023-03-28T17:23:07.564Z,2.53
2023-03-28T17:26:13.031Z,1.90
2023-03-28T17:29:17.842Z,2.00
2023-03-28T17:32:22.757Z,1.92
2023-03-28T17:35:27.287Z,1.77
2023-03-28T17:38:32.472Z,1.77
2023-03-28T17:41:37.859Z,2.22
2023-03-28T17:44:42.640Z,1.70
2023-03-28T17:47:47.343Z,2.20
2023-03-28T17:50:56.217Z,1.77
2023-03-28T17:54:00.995Z,2.45
2023-03-28T17:57:06.872Z,1.83
2023-03-28T18:00:12.365Z,1.83
2023-03-28T18:03:20.845Z,2.03
2023-03-28T18:06:41.033Z,1.85
2023-03-28T18:09:46.220Z,1.75
2023-03-28T18:12:51.574Z,1.85
2023-03-28T18:15:56.003Z,1.70
2023-03-28T18:19:01.177Z,1.38
2023-03-28T18:22:05.693Z,1.55
2023-03-28T18:25:10.681Z,1.67
2023-03-28T18:28:15.990Z,1.38
2023-03-28T18:31:27.939Z,1.48
2023-03-28T18:34:33.190Z,1.63
2023-03-28T18:37:38.183Z,2.00
2023-03-28T18:40:43.360Z,2.33
2023-03-28T18:43:48.225Z,2.00
2023-03-28T18:46:55.344Z,1.67
2023-03-28T18:50:00.780Z,1.50
2023-03-28T18:53:05.252Z,1.45
2023-03-28T18:56:12.346Z,1.50
2023-03-28T18:59:17.706Z,1.38
2023-03-28T19:02:22.995Z,1.30
2023-03-28T19:05:27.769Z,1.10
2023-03-28T19:08:32.672Z,1.40
2023-03-28T19:11:36.968Z,1.25
2023-03-28T19:14:41.394Z,1.40
2023-03-28T19:17:46.158Z,1.23
2023-03-28T19:20:54.946Z,1.50
2023-03-28T19:23:59.298Z,1.58
2023-03-28T19:27:05.297Z,1.50
2023-03-28T19:30:10.373Z,1.42
2023-03-28T19:33:15.077Z,1.60
2023-03-28T19:36:19.987Z,1.60
2023-03-28T19:39:24.372Z,1.20
2023-03-28T19:42:29.491Z,1.40
2023-03-28T19:45:34.487Z,1.30
2023-03-28T19:48:40.407Z,1.50
2023-03-28T19:51:44.975Z,1.30
2023-03-28T19:54:49.139Z,1.17
2023-03-28T19:57:54.401Z,1.75
2023-03-28T20:00:59.448Z,1.20
2023-03-28T20:04:04.556Z,1.73
2023-03-28T20:07:09.157Z,1.73
2023-03-28T20:10:13.720Z,1.40
2023-03-28T20:13:18.841Z,1.88
2023-03-28T20:16:23.620Z,1.90
2023-03-28T20:19:28.922Z,1.92
2023-03-28T20:22:34.328Z,1.70
2023-03-28T20:25:38.900Z,1.52
2023-03-28T20:28:46.173Z,1.73
2023-03-28T20:31:52.426Z,2.00
2023-03-28T20:34:56.980Z,1.90
2023-03-28T20:38:01.832Z,2.15
2023-03-28T20:41:12.078Z,1.80
2023-03-28T20:44:19.922Z,1.60
2023-03-28T20:47:25.269Z,1.60
2023-03-28T20:50:34.039Z,1.75
2023-03-28T20:53:39.451Z,1.40
2023-03-28T20:56:43.866Z,1.63
2023-03-28T20:59:48.715Z,1.52
2023-03-28T21:02:53.735Z,1.70
2023-03-28T21:05:58.185Z,1.70
2023-03-28T21:09:10.752Z,2.10
2023-03-28T21:12:15.619Z,1.75
2023-03-28T21:15:20.583Z,1.70
2023-03-28T21:18:25.323Z,1.40
2023-03-28T21:21:33.098Z,1.42
2023-03-28T21:24:37.405Z,1.70
2023-03-28T21:27:42.199Z,1.50
2023-03-28T21:30:57.898Z,1.70
2023-03-28T21:34:02.586Z,1.60
2023-03-28T21:37:06.655Z,1.50
2023-03-28T21:40:12.178Z,1.20
2023-03-28T21:43:17.340Z,1.65
2023-03-28T21:46:22.885Z,1.50
2023-03-28T21:49:27.282Z,1.17
2023-03-28T21:52:33.672Z,1.55
2023-03-28T21:55:38.164Z,1.42
2023-03-28T21:58:43.031Z,1.55
2023-03-28T22:01:47.833Z,1.60
2023-03-28T22:04:52.650Z,1.70
2023-03-28T22:07:58.054Z,1.80
2023-03-28T22:11:04.419Z,2.00
2023-03-28T22:14:09.590Z,1.52
2023-03-28T22:17:14.445Z,1.85
2023-03-28T22:20:19.933Z,1.60
2023-03-28T22:23:24.936Z,2.03
2023-03-28T22:26:30.496Z,1.75
2023-03-28T22:29:35.529Z,1.50
2023-03-28T22:32:40.756Z,1.40
2023-03-28T22:35:48.557Z,1.60
2023-03-28T22:38:54.717Z,1.35
2023-03-28T22:41:59.348Z,1.40
2023-03-28T22:45:04.595Z,1.58
2023-03-28T22:48:14.554Z,1.77
2023-03-28T22:51:19.522Z,1.40
2023-03-28T22:54:24.467Z,1.83
2023-03-28T22:57:29.277Z,1.40
2023-03-28T23:00:34.160Z,1.40
2023-03-28T23:03:38.697Z,1.77
2023-03-28T23:06:44.606Z,1.63
2023-03-28T23:09:49.065Z,1.67
2023-03-28T23:12:53.638Z,1.90
2023-03-28T23:15:58.240Z,2.00
2023-03-28T23:19:02.930Z,1.80
2023-03-28T23:22:07.506Z,2.05
2023-03-28T23:25:15.552Z,1.77
2023-03-28T23:28:20.390Z,1.52
2023-03-28T23:31:25.023Z,1.73
2023-03-28T23:34:29.712Z,1.75
2023-03-28T23:37:37.985Z,1.65
2023-03-28T23:40:44.183Z,1.95
2023-03-28T23:43:49.104Z,1.88
2023-03-28T23:46:53.387Z,1.55
2023-03-28T23:49:57.796Z,1.73
2023-03-28T23:53:02.793Z,1.80
2023-03-28T23:56:08.168Z,1.65
2023-03-28T23:59:12.783Z,1.67
